createdAt,value
2022-12-15T00:01:59.505Z,-2.10
2022-12-15T00:04:44.893Z,-1.90
2022-12-15T00:07:30.291Z,-2.00
2022-12-15T00:10:15.686Z,-2.00
2022-12-15T00:13:01.184Z,-2.00
2022-12-15T00:15:46.789Z,-1.90
2022-12-15T00:18:32.129Z,-2.00
2022-12-15T00:21:18.481Z,-2.10
2022-12-15T00:24:03.990Z,-1.90
2022-12-15T00:26:49.317Z,-2.00
2022-12-15T00:29:34.791Z,-2.10
2022-12-15T00:32:20.069Z,-2.10
2022-12-15T00:35:05.358Z,-2.00
2022-12-15T00:37:50.718Z,-2.10
2022-12-15T00:40:17.374Z,-2.10
2022-12-15T00:42:43.951Z,-2.10
2022-12-15T00:45:11.171Z,-2.20
2022-12-15T00:47:37.804Z,-2.40
2022-12-15T00:50:23.624Z,-2.30
2022-12-15T00:53:09.011Z,-2.20
2022-12-15T00:55:54.356Z,-2.70
2022-12-15T00:58:39.570Z,-2.40
2022-12-15T01:01:28.482Z,-2.30
2022-12-15T01:04:13.752Z,-2.10
2022-12-15T01:06:59.357Z,-2.20
2022-12-15T01:09:44.912Z,-2.10
2022-12-15T01:12:30.316Z,-2.00
2022-12-15T01:15:15.775Z,-2.00
2022-12-15T01:18:01.110Z,-2.00
2022-12-15T01:20:27.734Z,-2.00
2022-12-15T01:22:55.794Z,-1.90
2022-12-15T01:25:25.253Z,-1.80
2022-12-15T01:27:52.278Z,-2.00
2022-12-15T01:30:21.817Z,-2.10
2022-12-15T01:32:48.838Z,-2.30
2022-12-15T01:35:16.152Z,-2.30
2022-12-15T01:37:42.870Z,-2.30
2022-12-15T01:40:34.795Z,-2.10
2022-12-15T01:43:01.670Z,-2.00
2022-12-15T01:45:31.000Z,-2.20
2022-12-15T01:48:12.592Z,-2.50
2022-12-15T01:50:52.758Z,-2.60
2022-12-15T01:53:19.394Z,-2.40
2022-12-15T01:55:48.026Z,-2.30
2022-12-15T01:58:18.114Z,-2.30
2022-12-15T02:00:44.952Z,-2.30
2022-12-15T02:03:13.089Z,-2.30
2022-12-15T02:05:40.943Z,-2.20
2022-12-15T02:08:08.276Z,-2.10
2022-12-15T02:10:48.680Z,-2.00
2022-12-15T02:13:36.482Z,-2.00
2022-12-15T02:16:20.836Z,-1.80
2022-12-15T02:19:00.900Z,-1.80
2022-12-15T02:21:58.131Z,-1.90
2022-12-15T02:24:52.173Z,-1.80
2022-12-15T02:27:31.804Z,-1.90
2022-12-15T02:30:26.304Z,-1.80
2022-12-15T02:33:08.095Z,-1.90
2022-12-15T02:36:01.076Z,-2.00
2022-12-15T02:38:37.387Z,-2.00
2022-12-15T02:41:06.529Z,-1.70
2022-12-15T02:43:37.437Z,-1.70
2022-12-15T02:46:06.910Z,-1.70
2022-12-15T02:48:55.145Z,-1.90
2022-12-15T02:51:43.931Z,-2.10
2022-12-15T02:54:42.315Z,-2.00
2022-12-15T02:57:24.764Z,-2.00
2022-12-15T02:59:55.496Z,-1.90
2022-12-15T03:02:26.498Z,-1.90
2022-12-15T03:04:53.873Z,-1.90
2022-12-15T03:07:23.542Z,-1.80
2022-12-15T03:09:50.280Z,-1.80
2022-12-15T03:12:16.825Z,-2.00
2022-12-15T03:14:44.091Z,-1.90
2022-12-15T03:17:10.769Z,-2.20
2022-12-15T03:19:37.392Z,-2.40
2022-12-15T03:22:04.278Z,-2.10
2022-12-15T03:24:30.931Z,-2.30
2022-12-15T03:26:57.710Z,-2.30
2022-12-15T03:29:24.371Z,-2.50
2022-12-15T03:31:51.010Z,-2.70
2022-12-15T03:34:17.938Z,-2.70
2022-12-15T03:36:44.593Z,-2.50
2022-12-15T03:39:11.284Z,-2.30
2022-12-15T03:41:38.058Z,-2.30
2022-12-15T03:44:04.861Z,-2.20
2022-12-15T03:46:31.466Z,-2.20
2022-12-15T03:48:58.499Z,-2.10
2022-12-15T03:51:25.238Z,-2.10
2022-12-15T03:53:54.886Z,-2.10
2022-12-15T03:56:21.485Z,-2.20
2022-12-15T03:58:48.129Z,-2.30
2022-12-15T04:01:20.948Z,-2.20
2022-12-15T04:03:47.835Z,-2.10
2022-12-15T04:06:14.488Z,-2.00
2022-12-15T04:08:41.043Z,-1.90
2022-12-15T04:11:07.670Z,-2.00
2022-12-15T04:13:34.561Z,-1.90
2022-12-15T04:16:04.472Z,-1.90
2022-12-15T04:18:31.086Z,-2.00
2022-12-15T04:20:57.695Z,-2.10
2022-12-15T04:23:24.362Z,-2.20
2022-12-15T04:26:09.813Z,-2.10
2022-12-15T04:28:55.150Z,-2.00
2022-12-15T04:31:44.631Z,-2.30
2022-12-15T04:34:32.779Z,-2.50
2022-12-15T04:37:18.054Z,-2.60
2022-12-15T04:40:07.638Z,-2.50
2022-12-15T04:42:54.344Z,-2.30
2022-12-15T04:45:42.989Z,-2.30
2022-12-15T04:48:29.172Z,-2.20
2022-12-15T04:51:14.520Z,-2.00
2022-12-15T04:54:01.956Z,-2.00
2022-12-15T04:56:47.417Z,-2.20
2022-12-15T04:59:35.555Z,-2.10
2022-12-15T05:02:21.019Z,-2.00
2022-12-15T05:05:06.354Z,-2.10
2022-12-15T05:07:51.711Z,-2.90
2022-12-15T05:10:37.239Z,-3.20
2022-12-15T05:13:26.427Z,-3.20
2022-12-15T05:16:11.904Z,-3.00
2022-12-15T05:18:57.339Z,-3.00
2022-12-15T05:21:42.787Z,-2.70
2022-12-15T05:24:28.143Z,-2.70
2022-12-15T05:27:13.600Z,-2.50
2022-12-15T05:29:58.929Z,-2.50
2022-12-15T05:32:25.549Z,-2.50
2022-12-15T05:34:52.114Z,-2.30
2022-12-15T05:37:18.756Z,-2.40
2022-12-15T05:39:45.319Z,-2.30
2022-12-15T05:42:11.891Z,-2.40
2022-12-15T05:44:38.489Z,-2.40
2022-12-15T05:47:05.119Z,-2.40
2022-12-15T05:49:31.918Z,-2.40
2022-12-15T05:51:58.893Z,-2.30
2022-12-15T05:54:25.484Z,-2.50
2022-12-15T05:56:52.059Z,-2.80
2022-12-15T05:59:21.767Z,-2.90
2022-12-15T06:01:48.533Z,-2.80
2022-12-15T06:04:15.311Z,-2.60
2022-12-15T06:06:42.543Z,-2.40
2022-12-15T06:09:09.593Z,-2.40
2022-12-15T06:11:37.291Z,-2.50
2022-12-15T06:14:03.895Z,-2.80
2022-12-15T06:16:30.866Z,-2.60
2022-12-15T06:19:00.368Z,-2.30
2022-12-15T06:21:30.575Z,-2.30
2022-12-15T06:23:58.039Z,-2.20
2022-12-15T06:26:36.597Z,-2.40
2022-12-15T06:29:05.114Z,-2.70
2022-12-15T06:31:33.012Z,-2.50
2022-12-15T06:34:02.411Z,-2.40
2022-12-15T06:36:30.603Z,-2.40
2022-12-15T06:39:01.840Z,-2.80
2022-12-15T06:41:32.088Z,-2.70
2022-12-15T06:43:59.582Z,-2.60
2022-12-15T06:46:27.837Z,-2.50
2022-12-15T06:48:54.485Z,-2.50
2022-12-15T06:51:21.629Z,-3.00
2022-12-15T06:53:54.103Z,-2.80
2022-12-15T06:56:33.679Z,-2.80
2022-12-15T06:59:01.795Z,-2.80
2022-12-15T07:01:29.185Z,-2.70
2022-12-15T07:03:56.918Z,-2.60
2022-12-15T07:06:23.777Z,-2.50
2022-12-15T07:08:53.240Z,-2.50
2022-12-15T07:11:21.520Z,-2.50
2022-12-15T07:13:52.712Z,-3.00
2022-12-15T07:16:20.123Z,-3.00
2022-12-15T07:18:46.880Z,-2.90
2022-12-15T07:21:13.575Z,-2.70
2022-12-15T07:23:53.946Z,-2.60
2022-12-15T07:26:22.197Z,-2.60
2022-12-15T07:28:48.786Z,-2.40
2022-12-15T07:31:15.744Z,-2.70
2022-12-15T07:33:42.720Z,-2.60
2022-12-15T07:36:09.561Z,-2.90
2022-12-15T07:38:36.800Z,-2.90
2022-12-15T07:41:05.862Z,-3.10
2022-12-15T07:43:33.121Z,-2.70
2022-12-15T07:46:00.509Z,-2.90
2022-12-15T07:48:27.622Z,-3.00
2022-12-15T07:51:02.805Z,-3.20
2022-12-15T07:53:35.499Z,-3.00
2022-12-15T07:56:08.802Z,-3.00
2022-12-15T07:58:36.887Z,-2.90
2022-12-15T08:01:06.015Z,-3.10
2022-12-15T08:03:33.530Z,-2.90
2022-12-15T08:06:05.403Z,-2.60
2022-12-15T08:08:33.025Z,-2.50
2022-12-15T08:11:03.710Z,-2.80
2022-12-15T08:14:01.235Z,-2.70
2022-12-15T08:16:17.025Z,-3.00
2022-12-15T08:18:43.682Z,-3.40
2022-12-15T08:21:11.600Z,-3.20
2022-12-15T08:23:40.162Z,-2.90
2022-12-15T08:26:09.822Z,-2.70
2022-12-15T08:28:37.944Z,-2.60
2022-12-15T08:31:06.819Z,-2.50
2022-12-15T08:33:34.118Z,-2.50
2022-12-15T08:36:03.697Z,-2.80
2022-12-15T08:38:31.409Z,-2.80
2022-12-15T08:40:58.696Z,-2.60
2022-12-15T08:43:25.314Z,-2.60
2022-12-15T08:45:51.949Z,-2.40
2022-12-15T08:48:18.595Z,-2.30
2022-12-15T08:50:45.729Z,-2.30
2022-12-15T08:53:30.806Z,-2.30
2022-12-15T08:56:09.904Z,-2.30
2022-12-15T08:58:36.514Z,-2.50
2022-12-15T09:01:06.374Z,-2.70
2022-12-15T09:03:34.882Z,-2.70
2022-12-15T09:06:03.775Z,-2.50
2022-12-15T09:08:31.063Z,-2.10
2022-12-15T09:10:59.199Z,-2.10
2022-12-15T09:13:26.405Z,-2.00
2022-12-15T09:16:17.722Z,-1.90
2022-12-15T09:18:47.673Z,-1.90
2022-12-15T09:21:15.699Z,-1.70
2022-12-15T09:23:42.947Z,-1.80
2022-12-15T09:26:12.069Z,-1.70
2022-12-15T09:28:39.243Z,-1.60
2022-12-15T09:31:08.348Z,-1.50
2022-12-15T09:33:36.010Z,-1.40
2022-12-15T09:36:03.627Z,-1.40
2022-12-15T09:38:30.932Z,-1.30
2022-12-15T09:40:57.916Z,-1.50
2022-12-15T09:43:35.406Z,-1.40
2022-12-15T09:46:27.203Z,-1.50
2022-12-15T09:48:55.560Z,-1.20
2022-12-15T09:51:39.160Z,-1.40
2022-12-15T09:54:06.773Z,-1.20
2022-12-15T09:56:49.663Z,-1.30
2022-12-15T09:59:58.537Z,-1.10
2022-12-15T10:03:02.062Z,-1.00
2022-12-15T10:08:56.300Z,-0.90
2022-12-15T10:11:50.330Z,-0.90
2022-12-15T10:14:30.250Z,-1.30
2022-12-15T10:17:23.158Z,-1.20
2022-12-15T10:19:52.726Z,-0.60
2022-12-15T10:22:30.624Z,-0.40
2022-12-15T10:25:10.490Z,-0.50
2022-12-15T10:27:59.465Z,-0.50
2022-12-15T10:30:26.361Z,-0.40
2022-12-15T10:33:16.525Z,-0.20
2022-12-15T10:35:44.007Z,-0.30
2022-12-15T10:38:37.656Z,-0.50
2022-12-15T10:41:14.023Z,-0.40
2022-12-15T10:43:43.252Z,-0.40
2022-12-15T10:46:21.761Z,-0.20
2022-12-15T10:49:09.939Z,-0.40
2022-12-15T10:51:53.019Z,-0.20
2022-12-15T10:54:20.769Z,-0.10
2022-12-15T10:56:50.936Z,-0.10
2022-12-15T10:59:23.399Z,0.00
2022-12-15T11:01:51.104Z,0.20
2022-12-15T11:04:29.093Z,0.30
2022-12-15T11:07:01.903Z,0.50
2022-12-15T11:09:38.438Z,0.40
2022-12-15T11:12:50.506Z,0.60
2022-12-15T11:15:23.432Z,0.50
2022-12-15T11:17:58.373Z,0.60
2022-12-15T11:20:33.427Z,0.60
2022-12-15T11:23:16.525Z,0.60
2022-12-15T11:25:48.039Z,0.80
2022-12-15T11:28:24.006Z,0.60
2022-12-15T11:31:00.228Z,0.60
2022-12-15T11:33:26.895Z,0.40
2022-12-15T11:36:09.992Z,0.50
2022-12-15T11:39:06.495Z,0.80
2022-12-15T11:41:43.118Z,0.80
2022-12-15T11:44:18.888Z,0.80
2022-12-15T11:47:07.824Z,1.00
2022-12-15T11:49:52.719Z,0.80
2022-12-15T11:52:43.992Z,0.90
2022-12-15T11:55:43.137Z,1.20
2022-12-15T11:58:34.721Z,1.10
2022-12-15T12:01:22.063Z,1.20
2022-12-15T12:04:09.012Z,1.20
2022-12-15T12:06:45.183Z,0.70
2022-12-15T12:09:56.437Z,0.80
2022-12-15T12:12:36.090Z,0.80
2022-12-15T12:15:27.756Z,0.90
2022-12-15T12:18:12.861Z,0.90
2022-12-15T12:20:46.890Z,1.00
2022-12-15T12:23:29.733Z,1.10
2022-12-15T12:26:11.014Z,1.20
2022-12-15T12:28:48.639Z,1.10
2022-12-15T12:31:42.912Z,1.20
2022-12-15T12:34:17.472Z,1.30
2022-12-15T12:36:45.252Z,1.30
2022-12-15T12:39:23.116Z,1.50
2022-12-15T12:41:59.773Z,1.30
2022-12-15T12:44:35.903Z,1.20
2022-12-15T12:47:26.330Z,1.30
2022-12-15T12:49:58.631Z,1.20
2022-12-15T12:52:30.698Z,1.40
2022-12-15T12:55:01.905Z,1.40
2022-12-15T12:57:42.484Z,1.40
2022-12-15T13:00:20.288Z,1.30
2022-12-15T13:02:52.656Z,1.40
2022-12-15T13:05:22.513Z,1.60
2022-12-15T13:08:03.397Z,1.60
2022-12-15T13:10:30.089Z,1.50
2022-12-15T13:12:59.174Z,1.60
2022-12-15T13:15:37.202Z,1.80
2022-12-15T13:18:17.347Z,1.80
2022-12-15T13:20:45.509Z,1.90
2022-12-15T13:23:21.375Z,1.90
2022-12-15T13:25:57.313Z,2.10
2022-12-15T13:28:36.130Z,1.90
2022-12-15T13:31:11.601Z,1.80
2022-12-15T13:34:17.878Z,1.90
2022-12-15T13:36:54.688Z,2.10
2022-12-15T13:39:22.145Z,2.10
2022-12-15T13:42:23.737Z,2.10
2022-12-15T13:44:43.876Z,2.20
2022-12-15T13:47:29.883Z,2.40
2022-12-15T13:50:29.964Z,2.30
2022-12-15T13:56:05.730Z,2.40
2022-12-15T13:58:41.217Z,2.40
2022-12-15T14:01:30.181Z,2.60
2022-12-15T14:04:05.995Z,2.70
2022-12-15T14:06:43.854Z,2.60
2022-12-15T14:09:15.062Z,2.50
2022-12-15T14:11:58.629Z,2.30
2022-12-15T14:14:33.294Z,2.20
2022-12-15T14:17:02.763Z,2.30
2022-12-15T14:19:41.215Z,2.20
2022-12-15T14:22:29.070Z,1.70
2022-12-15T14:25:16.217Z,1.50
2022-12-15T14:27:42.793Z,1.70
2022-12-15T14:30:15.024Z,1.50
2022-12-15T14:32:44.098Z,1.50
2022-12-15T14:35:17.393Z,1.60
2022-12-15T14:37:44.165Z,1.70
2022-12-15T14:40:21.372Z,1.60
2022-12-15T14:42:54.057Z,1.60
2022-12-15T14:45:25.470Z,1.80
2022-12-15T14:48:21.615Z,1.90
2022-12-15T14:50:48.969Z,1.80
2022-12-15T14:53:18.282Z,1.60
2022-12-15T14:55:44.890Z,1.40
2022-12-15T14:58:34.870Z,1.40
2022-12-15T15:01:04.089Z,1.10
2022-12-15T15:03:39.060Z,1.10
2022-12-15T15:06:17.138Z,1.00
2022-12-15T15:08:50.734Z,0.90
2022-12-15T15:11:29.663Z,0.80
2022-12-15T15:14:00.165Z,0.80
2022-12-15T15:16:27.244Z,0.70
2022-12-15T15:18:55.881Z,0.70
2022-12-15T15:21:25.565Z,0.60
2022-12-15T15:24:04.364Z,0.30
2022-12-15T15:26:31.546Z,0.20
2022-12-15T15:28:58.591Z,0.40
2022-12-15T15:31:25.237Z,0.40
2022-12-15T15:33:52.844Z,0.50
2022-12-15T15:36:19.584Z,0.60
2022-12-15T15:38:52.046Z,0.40
2022-12-15T15:41:30.141Z,0.50
2022-12-15T15:43:59.244Z,0.60
2022-12-15T15:46:30.316Z,0.40
2022-12-15T15:48:59.184Z,0.40
2022-12-15T15:51:27.287Z,0.20
2022-12-15T15:53:57.891Z,0.30
2022-12-15T15:56:24.575Z,0.30
2022-12-15T15:58:51.114Z,0.10
2022-12-15T16:01:17.682Z,0.10
2022-12-15T16:03:44.428Z,0.20
2022-12-15T16:06:17.626Z,0.30
2022-12-15T16:08:46.328Z,0.20
2022-12-15T16:11:12.976Z,0.00
2022-12-15T16:13:39.792Z,-0.30
2022-12-15T16:16:06.966Z,-0.20
2022-12-15T16:18:34.128Z,-0.20
2022-12-15T16:21:01.030Z,-0.20
2022-12-15T16:23:29.534Z,-0.20
2022-12-15T16:26:00.088Z,-0.30
2022-12-15T16:28:29.647Z,-0.20
2022-12-15T16:31:01.394Z,-0.20
2022-12-15T16:33:28.283Z,-0.10
2022-12-15T16:35:55.024Z,-0.10
2022-12-15T16:38:26.056Z,-0.10
2022-12-15T16:40:55.337Z,-0.10
2022-12-15T16:43:26.160Z,-0.30
2022-12-15T16:45:54.845Z,-0.20
2022-12-15T16:48:21.717Z,-0.20
2022-12-15T16:50:58.103Z,-0.30
2022-12-15T16:53:35.167Z,-0.30
2022-12-15T16:56:05.940Z,-0.20
2022-12-15T16:58:35.425Z,-0.20
2022-12-15T17:01:02.266Z,-0.10
2022-12-15T17:03:29.191Z,-0.10
2022-12-15T17:06:04.001Z,-0.20
2022-12-15T17:08:46.681Z,-0.40
2022-12-15T17:11:21.514Z,-0.50
2022-12-15T17:13:51.193Z,-0.70
2022-12-15T17:16:19.593Z,-0.60
2022-12-15T17:18:46.549Z,-0.70
2022-12-15T17:21:45.124Z,-0.60
2022-12-15T17:24:15.582Z,-0.70
2022-12-15T17:26:44.319Z,-0.60
2022-12-15T17:29:17.304Z,-0.70
2022-12-15T17:31:44.120Z,-0.80
2022-12-15T17:34:46.156Z,-0.60
2022-12-15T17:37:14.216Z,-0.70
2022-12-15T17:39:41.804Z,-0.60
2022-12-15T17:42:20.580Z,-0.70
2022-12-15T17:44:48.275Z,-0.70
2022-12-15T17:47:16.403Z,-0.50
2022-12-15T17:49:43.880Z,-0.50
2022-12-15T17:52:19.315Z,-0.40
2022-12-15T17:54:46.064Z,-0.50
2022-12-15T17:57:12.826Z,-0.30
2022-12-15T17:59:39.416Z,-0.30
2022-12-15T18:02:06.305Z,-0.20
2022-12-15T18:04:33.096Z,-0.30
2022-12-15T18:07:01.941Z,-0.40
2022-12-15T18:09:28.959Z,-0.30
2022-12-15T18:11:55.525Z,-0.30
2022-12-15T18:14:22.777Z,-0.30
2022-12-15T18:16:49.983Z,-0.20
2022-12-15T18:19:16.667Z,-0.20
2022-12-15T18:21:43.348Z,-0.30
2022-12-15T18:24:13.098Z,-0.20
2022-12-15T18:26:39.683Z,-0.10
2022-12-15T18:29:20.193Z,-0.30
2022-12-15T18:31:48.560Z,-0.50
2022-12-15T18:34:17.863Z,-0.60
2022-12-15T18:36:44.891Z,-0.60
2022-12-15T18:39:19.515Z,-0.80
2022-12-15T18:41:46.789Z,-0.80
2022-12-15T18:44:26.604Z,-1.00
2022-12-15T18:46:55.107Z,-1.30
2022-12-15T18:49:22.578Z,-1.10
2022-12-15T18:51:49.301Z,-1.00
2022-12-15T18:54:22.330Z,-1.00
2022-12-15T18:56:49.537Z,-1.10
2022-12-15T18:59:17.769Z,-1.10
2022-12-15T19:01:46.273Z,-1.10
2022-12-15T19:04:13.952Z,-0.90
2022-12-15T19:06:41.354Z,-0.90
2022-12-15T19:09:15.557Z,-0.70
2022-12-15T19:12:03.797Z,-0.80
2022-12-15T19:14:42.899Z,-1.10
2022-12-15T19:17:42.136Z,-1.20
2022-12-15T19:20:36.059Z,-1.20
2022-12-15T19:23:03.288Z,-1.00
2022-12-15T19:25:30.700Z,-0.80
2022-12-15T19:27:59.788Z,-0.70
2022-12-15T19:30:29.316Z,-1.10
2022-12-15T19:32:56.155Z,-1.20
2022-12-15T19:35:23.095Z,-0.90
2022-12-15T19:37:49.936Z,-0.80
2022-12-15T19:40:27.328Z,-0.80
2022-12-15T19:42:55.692Z,-0.90
2022-12-15T19:45:27.520Z,-1.00
2022-12-15T19:47:54.964Z,-1.10
2022-12-15T19:50:24.127Z,-1.40
2022-12-15T19:52:54.861Z,-1.30
2022-12-15T19:55:25.907Z,-1.30
2022-12-15T19:57:52.677Z,-1.30
2022-12-15T20:00:22.229Z,-1.30
2022-12-15T20:02:51.472Z,-1.70
2022-12-15T20:05:19.378Z,-1.50
2022-12-15T20:07:46.530Z,-1.30
2022-12-15T20:10:23.317Z,-1.20
2022-12-15T20:12:53.338Z,-1.10
2022-12-15T20:15:22.909Z,-1.10
2022-12-15T20:17:56.398Z,-1.10
2022-12-15T20:20:24.635Z,-1.20
2022-12-15T20:22:56.309Z,-1.10
2022-12-15T20:25:26.171Z,-1.00
2022-12-15T20:27:52.842Z,-1.00
2022-12-15T20:30:22.436Z,-1.10
2022-12-15T20:32:49.479Z,-1.20
2022-12-15T20:35:17.695Z,-1.20
2022-12-15T20:37:44.446Z,-1.20
2022-12-15T20:40:19.614Z,-1.20
2022-12-15T20:42:46.712Z,-1.30
2022-12-15T20:45:15.467Z,-1.20
2022-12-15T20:47:44.378Z,-1.40
2022-12-15T20:50:37.397Z,-1.20
2022-12-15T20:53:05.872Z,-1.20
2022-12-15T20:55:32.537Z,-1.00
2022-12-15T20:57:59.215Z,-1.00
2022-12-15T21:00:26.209Z,-1.00
2022-12-15T21:02:55.020Z,-1.10
2022-12-15T21:05:24.606Z,-1.20
2022-12-15T21:07:52.199Z,-1.30
2022-12-15T21:10:20.239Z,-1.20
2022-12-15T21:12:49.091Z,-1.30
2022-12-15T21:15:22.219Z,-1.30
2022-12-15T21:17:57.891Z,-1.30
2022-12-15T21:20:30.443Z,-1.30
2022-12-15T21:22:57.696Z,-1.30
2022-12-15T21:25:26.367Z,-1.20
2022-12-15T21:27:53.283Z,-1.30
2022-12-15T21:30:22.772Z,-1.20
2022-12-15T21:32:50.445Z,-1.20
2022-12-15T21:35:18.637Z,-1.30
2022-12-15T21:37:49.532Z,-1.40
2022-12-15T21:40:21.155Z,-1.60
2022-12-15T21:42:49.916Z,-1.60
2022-12-15T21:45:19.709Z,-1.60
2022-12-15T21:48:06.070Z,-1.50
2022-12-15T21:50:33.486Z,-1.50
2022-12-15T21:53:01.215Z,-1.50
2022-12-15T21:55:29.251Z,-1.50
2022-12-15T21:57:57.167Z,-1.60
2022-12-15T22:00:25.036Z,-1.70
2022-12-15T22:02:53.474Z,-1.70
2022-12-15T22:05:21.759Z,-1.70
2022-12-15T22:07:49.485Z,-1.90
2022-12-15T22:10:17.649Z,-1.80
2022-12-15T22:12:59.298Z,-1.70
2022-12-15T22:15:28.237Z,-2.00
2022-12-15T22:17:56.076Z,-2.10
2022-12-15T22:20:24.425Z,-1.90
2022-12-15T22:22:51.311Z,-1.90
2022-12-15T22:25:21.388Z,-1.90
2022-12-15T22:27:48.550Z,-1.80
2022-12-15T22:30:25.315Z,-1.90
2022-12-15T22:32:52.667Z,-2.00
2022-12-15T22:35:23.033Z,-2.00
2022-12-15T22:37:53.452Z,-2.10
2022-12-15T22:40:21.483Z,-2.00
2022-12-15T22:42:53.199Z,-2.00
2022-12-15T22:45:23.946Z,-2.00
2022-12-15T22:47:52.183Z,-1.90
2022-12-15T22:50:22.132Z,-1.90
2022-12-15T22:52:48.808Z,-1.80
2022-12-15T22:55:16.869Z,-1.80
2022-12-15T22:57:53.994Z,-1.80
2022-12-15T23:00:20.711Z,-1.90
2022-12-15T23:02:47.584Z,-2.00
2022-12-15T23:05:18.587Z,-1.90
2022-12-15T23:07:45.289Z,-2.30
2022-12-15T23:10:33.020Z,-2.30
2022-12-15T23:13:00.029Z,-2.20
2022-12-15T23:15:47.060Z,-2.10
2022-12-15T23:18:14.105Z,-2.00
2022-12-15T23:20:41.149Z,-2.00
2022-12-15T23:23:08.547Z,-1.90
2022-12-15T23:25:35.334Z,-1.80
2022-12-15T23:28:01.950Z,-1.70
2022-12-15T23:30:28.516Z,-1.80
2022-12-15T23:32:55.445Z,-1.80
2022-12-15T23:35:22.221Z,-2.10
2022-12-15T23:37:48.815Z,-2.20
2022-12-15T23:40:21.233Z,-2.10
2022-12-15T23:42:49.188Z,-2.20
2022-12-15T23:45:16.007Z,-2.00
2022-12-15T23:47:42.927Z,-1.90
2022-12-15T23:50:09.770Z,-2.00
2022-12-15T23:52:36.959Z,-2.00
2022-12-15T23:55:04.541Z,-2.10
2022-12-15T23:57:31.943Z,-2.10
2022-12-15T23:59:58.599Z,-2.20
